Westfield, Wisconsin
Current Conditions -  °F | °C
As of 8:17 AM on Thursday 29 Jan 2015 (Local Time) from KY50 Reporting Station
Overcast Overcast  
Wind Chill: 19°   Ceiling: 1300
Heat Index: 30°   Visibility: 7mi
Dew Point: 27°   Wind: 15mph
Humidity: 86%   Direction: 320°NW
Pressure: 29.9"   Gusts: 25mph
Location:  43.88°N, 89.49°W
Report Text: KY50 291417Z AUTO 32013G22KT 7SM OVC013 M01/M03 A2990 RMK AO2 TSNO
Loading
Personal Weather Stations






























Interactive Weather Map New forecast layout! Learn more

10-Day Weather Forecast

Advertisements
Track Severe Weather on mobile